createdAt,value
2022-09-09T00:01:26.892Z,52.13
2022-09-09T00:04:01.621Z,53.06
2022-09-09T00:06:29.754Z,52.07
2022-09-09T00:09:03.206Z,52.50
2022-09-09T00:11:42.470Z,53.30
2022-09-09T00:14:14.676Z,52.35
2022-09-09T00:16:42.135Z,54.11
2022-09-09T00:19:09.486Z,52.37
2022-09-09T00:21:37.757Z,53.86
2022-09-09T00:24:12.247Z,51.89
2022-09-09T00:26:41.254Z,51.35
2022-09-09T00:29:08.496Z,50.74
2022-09-09T00:31:35.755Z,51.06
2022-09-09T00:34:12.131Z,51.05
2022-09-09T00:36:39.604Z,51.48
2022-09-09T00:39:06.965Z,51.10
2022-09-09T00:41:44.710Z,50.59
2022-09-09T00:44:31.044Z,51.52
2022-09-09T00:47:06.088Z,51.29
2022-09-09T00:49:36.988Z,51.11
2022-09-09T00:52:09.375Z,53.68
2022-09-09T00:54:36.710Z,53.46
2022-09-09T00:57:12.972Z,53.18
2022-09-09T00:59:43.843Z,51.42
2022-09-09T01:02:30.176Z,50.65
2022-09-09T01:05:03.873Z,51.76
2022-09-09T01:07:31.031Z,52.37
2022-09-09T01:09:59.167Z,51.22
2022-09-09T01:12:32.482Z,50.48
2022-09-09T01:15:04.417Z,50.43
2022-09-09T01:17:33.686Z,50.50
2022-09-09T01:20:11.796Z,50.15
2022-09-09T01:22:42.377Z,52.06
2022-09-09T01:25:26.793Z,51.21
2022-09-09T01:27:55.905Z,50.50
2022-09-09T01:30:23.323Z,50.29
2022-09-09T01:32:51.881Z,49.65
2022-09-09T01:35:25.335Z,50.60
2022-09-09T01:37:52.933Z,50.51
2022-09-09T01:40:20.269Z,51.10
2022-09-09T01:42:48.184Z,50.33
2022-09-09T01:45:15.556Z,49.27
2022-09-09T01:47:42.987Z,53.53
2022-09-09T01:50:12.425Z,53.75
2022-09-09T01:52:39.828Z,52.65
2022-09-09T01:55:08.034Z,51.70
2022-09-09T01:57:39.605Z,53.16
2022-09-09T02:00:12.715Z,53.18
2022-09-09T02:02:47.513Z,53.13
2022-09-09T02:05:38.437Z,53.13
2022-09-09T02:08:12.212Z,53.87
2022-09-09T02:10:45.543Z,55.19
2022-09-09T02:13:17.357Z,55.87
2022-09-09T02:15:44.762Z,55.82
2022-09-09T02:18:12.221Z,54.04
2022-09-09T02:23:07.070Z,53.75
2022-09-09T02:25:34.262Z,53.00
2022-09-09T02:28:02.798Z,54.59
2022-09-09T02:30:30.504Z,53.53
2022-09-09T02:32:58.144Z,53.35
2022-09-09T02:35:27.587Z,54.64
2022-09-09T02:37:56.075Z,55.87
2022-09-09T02:40:23.656Z,55.97
2022-09-09T02:42:51.666Z,55.97
2022-09-09T02:45:20.063Z,56.81
2022-09-09T02:47:59.926Z,54.27
2022-09-09T02:50:30.906Z,58.32
2022-09-09T02:53:11.092Z,56.28
2022-09-09T02:55:40.655Z,57.19
2022-09-09T02:58:09.037Z,55.36
2022-09-09T03:00:40.406Z,56.81
2022-09-09T03:03:09.763Z,55.52
2022-09-09T03:05:37.585Z,55.64
2022-09-09T03:08:06.450Z,55.19
2022-09-09T03:10:34.053Z,54.66
2022-09-09T03:13:01.200Z,57.16
2022-09-09T03:15:31.020Z,54.61
2022-09-09T03:17:58.842Z,54.25
2022-09-09T03:20:27.114Z,53.74
2022-09-09T03:22:54.527Z,57.54
2022-09-09T03:25:24.141Z,59.34
2022-09-09T03:27:54.066Z,56.71
2022-09-09T03:30:25.517Z,54.21
2022-09-09T03:32:53.153Z,52.68
2022-09-09T03:35:20.439Z,52.42
2022-09-09T03:37:47.967Z,55.18
2022-09-09T03:40:15.568Z,54.93
2022-09-09T03:42:43.468Z,53.25
2022-09-09T03:45:11.691Z,57.50
2022-09-09T03:47:39.726Z,54.47
2022-09-09T03:50:09.475Z,55.92
2022-09-09T03:52:37.703Z,53.92
2022-09-09T03:55:05.978Z,54.16
2022-09-09T03:57:35.872Z,52.77
2022-09-09T04:00:05.045Z,52.31
2022-09-09T04:02:32.924Z,57.37
2022-09-09T04:05:00.698Z,53.88
2022-09-09T04:07:29.143Z,52.48
2022-09-09T04:09:56.752Z,55.55
2022-09-09T04:12:24.450Z,55.45
2022-09-09T04:14:51.629Z,54.96
2022-09-09T04:17:18.772Z,54.14
2022-09-09T04:19:46.182Z,55.83
2022-09-09T04:22:14.138Z,54.84
2022-09-09T04:24:44.466Z,55.51
2022-09-09T04:27:14.235Z,54.25
2022-09-09T04:29:41.560Z,55.82
2022-09-09T04:32:08.951Z,56.67
2022-09-09T04:34:36.378Z,55.24
2022-09-09T04:37:04.099Z,54.34
2022-09-09T04:39:31.515Z,57.17
2022-09-09T04:42:00.998Z,56.06
2022-09-09T04:44:28.339Z,56.98
2022-09-09T04:46:55.535Z,54.81
2022-09-09T04:49:23.068Z,56.16
2022-09-09T04:51:50.536Z,55.83
2022-09-09T04:54:17.980Z,58.10
2022-09-09T04:56:45.836Z,55.98
2022-09-09T04:59:13.117Z,55.35
2022-09-09T05:01:40.493Z,55.00
2022-09-09T05:04:08.017Z,54.76
2022-09-09T05:06:37.188Z,55.06
2022-09-09T05:09:04.604Z,54.41
2022-09-09T05:11:33.208Z,53.08
2022-09-09T05:14:00.557Z,54.52
2022-09-09T05:16:28.377Z,55.13
2022-09-09T05:18:56.288Z,57.71
2022-09-09T05:21:24.941Z,54.23
2022-09-09T05:23:52.463Z,55.66
2022-09-09T05:26:21.567Z,56.24
2022-09-09T05:28:49.030Z,58.61
2022-09-09T05:31:17.196Z,57.25
2022-09-09T05:33:46.956Z,58.34
2022-09-09T05:36:15.460Z,54.91
2022-09-09T05:38:43.318Z,56.41
2022-09-09T05:41:12.267Z,56.96
2022-09-09T05:43:39.516Z,57.46
2022-09-09T05:46:07.555Z,56.29
2022-09-09T05:48:36.125Z,54.57
2022-09-09T05:51:22.939Z,53.57
2022-09-09T05:53:51.371Z,54.87
2022-09-09T05:56:20.629Z,53.90
2022-09-09T05:58:50.409Z,52.83
2022-09-09T06:01:28.815Z,50.91
2022-09-09T06:03:57.402Z,52.04
2022-09-09T06:06:29.026Z,52.33
2022-09-09T06:08:59.086Z,53.82
2022-09-09T06:11:27.716Z,51.15
2022-09-09T06:13:55.593Z,54.85
2022-09-09T06:16:27.350Z,55.19
2022-09-09T06:18:55.304Z,54.38
2022-09-09T06:21:33.700Z,54.55
2022-09-09T06:24:01.460Z,53.79
2022-09-09T06:26:31.512Z,55.48
2022-09-09T06:28:59.286Z,53.97
2022-09-09T06:31:29.995Z,53.60
2022-09-09T06:33:58.780Z,53.35
2022-09-09T06:36:26.985Z,52.63
2022-09-09T06:38:54.314Z,53.86
2022-09-09T06:41:22.663Z,52.80
2022-09-09T06:43:50.077Z,53.15
2022-09-09T06:46:18.281Z,55.99
2022-09-09T06:48:46.376Z,54.11
2022-09-09T06:51:14.510Z,53.63
2022-09-09T06:53:43.098Z,52.66
2022-09-09T06:56:14.785Z,52.59
2022-09-09T06:58:47.764Z,51.88
2022-09-09T07:01:17.439Z,53.76
2022-09-09T07:03:46.404Z,52.00
2022-09-09T07:06:15.803Z,51.56
2022-09-09T07:08:51.776Z,51.52
2022-09-09T07:11:24.833Z,52.44
2022-09-09T07:13:52.557Z,53.56
2022-09-09T07:16:20.226Z,52.96
2022-09-09T07:18:47.649Z,53.17
2022-09-09T07:21:15.416Z,51.17
2022-09-09T07:23:42.590Z,52.11
2022-09-09T07:26:14.395Z,51.69
2022-09-09T07:28:42.320Z,53.84
2022-09-09T07:31:14.707Z,53.65
2022-09-09T07:33:42.269Z,53.08
2022-09-09T07:36:16.729Z,52.81
2022-09-09T07:38:48.435Z,52.00
2022-09-09T07:41:18.157Z,53.09
2022-09-09T07:43:46.801Z,52.59
2022-09-09T07:46:14.616Z,51.20
2022-09-09T07:48:45.936Z,50.49
2022-09-09T07:51:17.917Z,49.15
2022-09-09T07:53:45.717Z,49.10
2022-09-09T07:56:17.696Z,48.24
2022-09-09T07:58:46.137Z,49.11
2022-09-09T08:01:19.031Z,48.53
2022-09-09T08:03:47.059Z,48.85
2022-09-09T08:06:14.760Z,47.09
2022-09-09T08:08:44.195Z,50.68
2022-09-09T08:11:13.336Z,45.95
2022-09-09T08:13:40.573Z,47.99
2022-09-09T08:16:09.122Z,47.27
2022-09-09T08:18:36.599Z,48.52
2022-09-09T08:21:12.657Z,50.01
2022-09-09T08:23:42.182Z,50.63
2022-09-09T08:26:14.418Z,48.35
2022-09-09T08:28:42.103Z,46.89
2022-09-09T08:31:10.508Z,47.67
2022-09-09T08:33:39.201Z,45.75
2022-09-09T08:36:07.719Z,45.71
2022-09-09T08:38:34.933Z,45.73
2022-09-09T08:41:08.591Z,44.93
2022-09-09T08:43:36.198Z,42.60
2022-09-09T08:46:12.008Z,45.02
2022-09-09T08:48:49.035Z,43.87
2022-09-09T08:51:16.383Z,42.15
2022-09-09T08:53:45.581Z,44.28
2022-09-09T08:56:14.211Z,43.51
2022-09-09T08:58:45.280Z,43.96
2022-09-09T09:01:20.031Z,43.52
2022-09-09T09:04:06.632Z,42.62
2022-09-09T09:06:42.974Z,43.18
2022-09-09T09:09:22.617Z,41.20
2022-09-09T09:11:53.246Z,44.08
2022-09-09T09:14:24.792Z,41.60
2022-09-09T09:17:00.441Z,42.40
2022-09-09T09:19:29.534Z,42.63
2022-09-09T09:22:11.202Z,43.45
2022-09-09T09:24:38.560Z,42.55
2022-09-09T09:27:09.761Z,42.83
2022-09-09T09:29:51.910Z,41.36
2022-09-09T09:32:24.987Z,41.56
2022-09-09T09:34:59.171Z,41.48
2022-09-09T09:37:31.656Z,40.84
2022-09-09T09:40:10.221Z,39.68
2022-09-09T09:42:37.935Z,38.89
2022-09-09T09:45:19.189Z,37.57
2022-09-09T09:47:46.821Z,38.15
2022-09-09T09:50:18.779Z,36.79
2022-09-09T09:52:54.520Z,35.56
2022-09-09T09:55:23.722Z,36.03
2022-09-09T09:57:50.920Z,36.82
2022-09-09T10:00:19.585Z,34.38
2022-09-09T10:02:47.609Z,35.37
2022-09-09T10:05:26.791Z,35.57
2022-09-09T10:08:11.657Z,33.11
2022-09-09T10:10:47.411Z,34.01
2022-09-09T10:13:33.486Z,35.06
2022-09-09T10:16:04.657Z,33.04
2022-09-09T10:18:32.771Z,31.73
2022-09-09T10:21:06.346Z,34.72
2022-09-09T10:23:39.755Z,33.75
2022-09-09T10:26:29.482Z,34.05
2022-09-09T10:29:07.526Z,33.17
2022-09-09T10:31:39.485Z,31.24
2022-09-09T10:34:15.601Z,31.62
2022-09-09T10:36:45.033Z,28.06
2022-09-09T10:39:17.338Z,28.31
2022-09-09T10:42:06.159Z,29.02
2022-09-09T10:44:39.959Z,31.87
2022-09-09T10:47:10.042Z,32.67
2022-09-09T10:49:57.634Z,30.26
2022-09-09T10:52:28.751Z,30.17
2022-09-09T10:55:14.426Z,28.15
2022-09-09T10:57:51.048Z,31.53
2022-09-09T11:00:37.126Z,30.18
2022-09-09T11:03:04.907Z,28.05
2022-09-09T11:05:34.923Z,29.37
2022-09-09T11:08:02.772Z,27.86
2022-09-09T11:10:31.921Z,26.24
2022-09-09T11:13:00.857Z,28.30
2022-09-09T11:15:44.470Z,27.23
2022-09-09T11:18:13.047Z,29.81
2022-09-09T11:20:40.125Z,26.91
2022-09-09T11:23:11.789Z,27.76
2022-09-09T11:25:43.934Z,29.92
2022-09-09T11:28:17.017Z,31.01
2022-09-09T11:30:56.014Z,29.29
2022-09-09T11:33:42.370Z,29.50
2022-09-09T11:36:14.802Z,31.05
2022-09-09T11:38:48.782Z,30.46
2022-09-09T11:41:21.009Z,30.50
2022-09-09T11:43:54.851Z,30.08
2022-09-09T11:46:23.786Z,30.31
2022-09-09T11:49:01.639Z,29.26
2022-09-09T11:51:29.644Z,29.73
2022-09-09T11:54:22.906Z,30.67
2022-09-09T11:56:50.315Z,31.03
2022-09-09T11:59:25.293Z,29.68
2022-09-09T12:02:11.967Z,31.61
2022-09-09T12:04:43.303Z,31.21
2022-09-09T12:07:10.384Z,32.83
2022-09-09T12:09:40.205Z,29.84
2022-09-09T12:12:13.656Z,28.10
2022-09-09T12:14:44.343Z,30.16
2022-09-09T12:17:17.547Z,29.36
2022-09-09T12:19:44.667Z,30.05
2022-09-09T12:22:12.321Z,29.71
2022-09-09T12:24:54.851Z,30.25
2022-09-09T12:27:22.142Z,30.90
2022-09-09T12:29:58.128Z,31.35
2022-09-09T12:32:25.812Z,29.67
2022-09-09T12:34:52.892Z,29.41
2022-09-09T12:37:26.273Z,32.61
2022-09-09T12:40:00.844Z,30.23
2022-09-09T12:42:28.369Z,31.44
2022-09-09T12:44:59.845Z,30.58
2022-09-09T12:47:32.267Z,29.69
2022-09-09T12:50:00.378Z,29.01
2022-09-09T12:52:31.998Z,31.33
2022-09-09T12:54:59.735Z,29.78
2022-09-09T12:57:27.370Z,28.33
2022-09-09T13:00:05.546Z,27.83
2022-09-09T13:02:32.970Z,27.07
2022-09-09T13:05:07.953Z,30.25
2022-09-09T13:07:35.338Z,30.94
2022-09-09T13:10:02.522Z,29.86
2022-09-09T13:12:29.711Z,29.65
2022-09-09T13:14:57.334Z,29.77
2022-09-09T13:17:25.442Z,29.81
2022-09-09T13:19:53.852Z,29.82
2022-09-09T13:22:32.008Z,29.30
2022-09-09T13:25:04.090Z,28.54
2022-09-09T13:27:35.844Z,28.66
2022-09-09T13:30:03.176Z,28.88
2022-09-09T13:32:30.378Z,29.29
2022-09-09T13:34:58.627Z,25.48
2022-09-09T13:37:35.873Z,26.78
2022-09-09T13:40:04.130Z,26.04
2022-09-09T13:42:32.523Z,26.07
2022-09-09T13:44:59.875Z,24.77
2022-09-09T13:47:32.093Z,27.89
2022-09-09T13:49:59.251Z,27.18
2022-09-09T13:52:26.959Z,27.54
2022-09-09T13:54:55.082Z,26.51
2022-09-09T13:57:23.459Z,28.70
2022-09-09T14:00:06.638Z,26.66
2022-09-09T14:02:34.831Z,26.61
2022-09-09T14:05:02.101Z,27.71
2022-09-09T14:07:29.984Z,28.98
2022-09-09T14:09:57.451Z,28.60
2022-09-09T14:12:24.936Z,29.54
2022-09-09T14:14:53.029Z,31.06
2022-09-09T14:17:20.398Z,29.42
2022-09-09T14:19:47.554Z,29.12
2022-09-09T14:22:15.029Z,29.26
2022-09-09T14:24:42.466Z,29.78
2022-09-09T14:27:09.754Z,28.32
2022-09-09T14:29:37.036Z,28.72
2022-09-09T14:32:06.591Z,29.13
2022-09-09T14:34:39.129Z,28.83
2022-09-09T14:37:06.524Z,28.11
2022-09-09T14:39:33.665Z,28.43
2022-09-09T14:42:00.816Z,28.35
2022-09-09T14:44:28.198Z,27.62
2022-09-09T14:46:55.333Z,27.91
2022-09-09T14:49:22.427Z,26.89
2022-09-09T14:51:49.843Z,25.71
2022-09-09T14:54:17.294Z,28.76
2022-09-09T14:56:44.468Z,28.89
2022-09-09T14:59:11.888Z,30.52
2022-09-09T15:01:39.102Z,29.12
2022-09-09T15:04:06.693Z,28.67
2022-09-09T15:06:35.130Z,28.51
2022-09-09T15:09:02.215Z,30.34
2022-09-09T15:11:31.490Z,29.59
2022-09-09T15:13:59.561Z,29.94
2022-09-09T15:16:28.084Z,27.02
2022-09-09T15:18:56.068Z,27.41
2022-09-09T15:21:24.456Z,29.35
2022-09-09T15:23:52.261Z,28.02
2022-09-09T15:26:19.594Z,27.75
2022-09-09T15:28:48.311Z,28.91
2022-09-09T15:31:20.225Z,26.96
2022-09-09T15:33:49.135Z,27.69
2022-09-09T15:36:26.269Z,28.36
2022-09-09T15:38:53.915Z,29.88
2022-09-09T15:41:21.514Z,30.11
2022-09-09T15:43:52.805Z,31.32
2022-09-09T15:46:28.400Z,31.20
2022-09-09T15:48:56.650Z,30.67
2022-09-09T15:51:41.659Z,30.54
2022-09-09T15:54:10.208Z,31.38
2022-09-09T15:56:37.575Z,32.34
2022-09-09T15:59:04.746Z,31.74
2022-09-09T16:01:32.136Z,31.81
2022-09-09T16:04:00.977Z,31.92
2022-09-09T16:06:29.407Z,32.03
2022-09-09T16:08:57.222Z,31.21
2022-09-09T16:11:25.679Z,29.97
2022-09-09T16:13:53.370Z,29.48
2022-09-09T16:16:22.987Z,29.37
2022-09-09T16:18:54.394Z,29.48
2022-09-09T16:21:25.404Z,30.02
2022-09-09T16:23:54.331Z,30.76
2022-09-09T16:26:21.432Z,30.67
2022-09-09T16:28:48.964Z,30.22
2022-09-09T16:31:18.306Z,29.87
2022-09-09T16:33:45.756Z,30.11
2022-09-09T16:36:16.834Z,31.07
2022-09-09T16:38:44.274Z,30.90
2022-09-09T16:41:11.883Z,30.61
2022-09-09T16:43:39.173Z,30.72
2022-09-09T16:46:17.418Z,30.21
2022-09-09T16:48:45.305Z,29.88
2022-09-09T16:51:15.146Z,29.33
2022-09-09T16:53:45.197Z,29.59
2022-09-09T16:56:15.155Z,29.96
2022-09-09T16:58:43.906Z,30.02
2022-09-09T17:01:15.415Z,29.92
2022-09-09T17:03:42.930Z,30.42
2022-09-09T17:06:11.046Z,30.38
2022-09-09T17:08:39.934Z,30.46
2022-09-09T17:11:15.077Z,30.44
2022-09-09T17:13:42.871Z,30.54
2022-09-09T17:16:10.573Z,30.31
2022-09-09T17:18:37.816Z,30.65
2022-09-09T17:21:08.849Z,30.52
2022-09-09T17:23:38.831Z,30.68
2022-09-09T17:26:06.805Z,30.20
2022-09-09T17:28:34.394Z,30.18
2022-09-09T17:31:03.276Z,30.35
2022-09-09T17:33:31.877Z,30.09
2022-09-09T17:35:59.959Z,29.95
2022-09-09T17:38:29.345Z,30.35
2022-09-09T17:41:07.063Z,30.20
2022-09-09T17:43:34.804Z,30.62
2022-09-09T17:46:08.536Z,30.74
2022-09-09T17:48:37.674Z,31.09
2022-09-09T17:51:12.348Z,30.73
2022-09-09T17:53:43.923Z,30.91
2022-09-09T17:56:11.583Z,30.45
2022-09-09T17:58:38.933Z,30.36
2022-09-09T18:01:07.248Z,30.71
2022-09-09T18:03:35.549Z,30.67
2022-09-09T18:06:03.797Z,30.99
2022-09-09T18:08:34.759Z,31.41
2022-09-09T18:11:04.380Z,31.77
2022-09-09T18:13:31.804Z,32.59
2022-09-09T18:15:59.168Z,32.50
2022-09-09T18:18:26.916Z,33.11
2022-09-09T18:20:57.972Z,33.31
2022-09-09T18:23:25.164Z,33.25
2022-09-09T18:25:52.665Z,33.51
2022-09-09T18:28:24.546Z,33.45
2022-09-09T18:30:52.818Z,33.77
2022-09-09T18:33:21.225Z,33.83
2022-09-09T18:35:48.902Z,34.04
2022-09-09T18:38:17.823Z,33.73
2022-09-09T18:40:45.027Z,34.26
2022-09-09T18:43:13.083Z,33.95
2022-09-09T18:45:40.897Z,34.11
2022-09-09T18:48:08.542Z,34.20
2022-09-09T18:50:36.046Z,33.99
2022-09-09T18:53:03.682Z,33.87
2022-09-09T18:55:31.552Z,33.56
2022-09-09T18:57:59.531Z,33.20
2022-09-09T19:00:27.073Z,33.35
2022-09-09T19:02:54.330Z,33.46
2022-09-09T19:05:21.757Z,33.64
2022-09-09T19:07:49.501Z,33.82
2022-09-09T19:10:16.958Z,33.81
2022-09-09T19:12:44.747Z,34.11
2022-09-09T19:15:12.378Z,34.24
2022-09-09T19:17:39.832Z,34.18
2022-09-09T19:20:09.247Z,34.11
2022-09-09T19:22:36.806Z,33.87
2022-09-09T19:25:04.373Z,34.10
2022-09-09T19:27:31.769Z,34.37
2022-09-09T19:29:59.416Z,34.29
2022-09-09T19:35:14.145Z,34.35
2022-09-09T19:37:42.263Z,34.22
2022-09-09T19:40:11.362Z,34.63
2022-09-09T19:42:40.881Z,34.61
2022-09-09T19:45:10.561Z,34.66
2022-09-09T19:47:37.770Z,34.73
2022-09-09T19:50:05.829Z,34.52
2022-09-09T19:52:33.061Z,33.94
2022-09-09T19:55:01.275Z,34.13
2022-09-09T19:57:30.372Z,34.13
2022-09-09T19:59:57.512Z,34.28
2022-09-09T20:02:25.003Z,34.85
2022-09-09T20:04:52.442Z,34.80
2022-09-09T20:07:19.611Z,35.02
2022-09-09T20:09:46.825Z,35.28
2022-09-09T20:12:14.245Z,35.54
2022-09-09T20:14:41.379Z,36.02
2022-09-09T20:17:09.983Z,36.23
2022-09-09T20:19:39.683Z,37.28
2022-09-09T20:22:06.995Z,36.95
2022-09-09T20:24:34.169Z,36.99
2022-09-09T20:27:02.052Z,37.23
2022-09-09T20:29:29.194Z,37.66
2022-09-09T20:31:56.318Z,37.50
2022-09-09T20:34:25.799Z,38.53
2022-09-09T20:36:54.272Z,38.38
2022-09-09T20:39:22.333Z,38.70
2022-09-09T20:41:49.931Z,39.67
2022-09-09T20:44:18.045Z,39.90
2022-09-09T20:46:49.535Z,39.79
2022-09-09T20:49:17.920Z,39.56
2022-09-09T20:51:46.654Z,39.78
2022-09-09T20:54:14.622Z,39.84
2022-09-09T20:56:42.578Z,40.13
2022-09-09T20:59:11.765Z,39.71
2022-09-09T21:01:39.496Z,38.88
2022-09-09T21:04:07.239Z,39.32
2022-09-09T21:06:34.488Z,39.45
2022-09-09T21:09:01.603Z,39.24
2022-09-09T21:11:28.961Z,39.31
2022-09-09T21:13:56.492Z,40.94
2022-09-09T21:16:23.598Z,41.13
2022-09-09T21:18:51.055Z,41.20
2022-09-09T21:21:21.144Z,41.68
2022-09-09T21:23:48.862Z,41.49
2022-09-09T21:26:17.864Z,42.02
2022-09-09T21:28:45.039Z,42.07
2022-09-09T21:31:15.803Z,41.02
2022-09-09T21:33:43.220Z,40.71
2022-09-09T21:36:12.016Z,42.33
2022-09-09T21:38:42.164Z,41.56
2022-09-09T21:41:13.405Z,40.85
2022-09-09T21:43:41.963Z,41.69
2022-09-09T21:46:10.227Z,42.92
2022-09-09T21:48:37.548Z,43.02
2022-09-09T21:51:08.237Z,43.04
2022-09-09T21:53:36.079Z,42.82
2022-09-09T21:56:04.863Z,43.28
2022-09-09T21:58:31.967Z,43.51
2022-09-09T22:00:59.412Z,44.11
2022-09-09T22:03:26.833Z,44.43
2022-09-09T22:05:54.223Z,44.60
2022-09-09T22:08:21.390Z,43.93
2022-09-09T22:10:48.806Z,44.70
2022-09-09T22:13:16.410Z,44.50
2022-09-09T22:15:44.470Z,44.22
2022-09-09T22:18:13.181Z,43.84
2022-09-09T22:20:41.841Z,44.09
2022-09-09T22:23:09.466Z,43.47
2022-09-09T22:25:36.924Z,43.61
2022-09-09T22:28:05.146Z,43.21
2022-09-09T22:30:32.538Z,43.13
2022-09-09T22:33:01.118Z,43.06
2022-09-09T22:35:29.082Z,44.00
2022-09-09T22:37:57.083Z,43.90
2022-09-09T22:40:24.545Z,43.73
2022-09-09T22:42:52.883Z,43.78
2022-09-09T22:45:21.694Z,44.58
2022-09-09T22:47:51.465Z,44.48
2022-09-09T22:50:19.672Z,44.89
2022-09-09T22:52:47.426Z,44.87
2022-09-09T22:55:14.810Z,44.58
2022-09-09T22:57:42.160Z,44.48
2022-09-09T23:00:09.754Z,43.95
2022-09-09T23:02:41.051Z,43.98
2022-09-09T23:05:08.862Z,44.26
2022-09-09T23:07:36.707Z,44.70
2022-09-09T23:10:05.207Z,44.66
2022-09-09T23:12:32.812Z,44.61
2022-09-09T23:15:00.360Z,44.33
2022-09-09T23:17:27.495Z,43.78
2022-09-09T23:19:56.397Z,43.69
2022-09-09T23:22:24.678Z,43.67
2022-09-09T23:24:54.030Z,43.49
2022-09-09T23:27:24.111Z,43.53
2022-09-09T23:29:51.845Z,43.61
2022-09-09T23:32:19.001Z,43.75
2022-09-09T23:34:47.590Z,43.55
2022-09-09T23:37:15.135Z,43.70
2022-09-09T23:39:42.913Z,43.64
2022-09-09T23:42:11.363Z,43.10
2022-09-09T23:44:39.557Z,43.73
2022-09-09T23:47:07.258Z,44.09
2022-09-09T23:49:34.883Z,44.09
2022-09-09T23:52:05.335Z,44.13
2022-09-09T23:54:35.250Z,44.74
2022-09-09T23:57:03.137Z,44.32
2022-09-09T23:59:30.845Z,46.39
